sensor_id;sensor_type;location;lat;lon;timestamp;P1;durP1;ratioP1;P2;durP2;ratioP2
21501;SDS011;27639;48.674;9.242;2023-02-28T00:00:29;4.53;;;3.00;;
21501;SDS011;27639;48.674;9.242;2023-02-28T00:02:54;5.03;;;2.53;;
21501;SDS011;27639;48.674;9.242;2023-02-28T00:05:21;5.22;;;2.83;;
21501;SDS011;27639;48.674;9.242;2023-02-28T00:07:48;4.30;;;2.38;;
21501;SDS011;27639;48.674;9.242;2023-02-28T00:10:16;5.53;;;3.10;;
21501;SDS011;27639;48.674;9.242;2023-02-28T00:12:48;6.13;;;2.85;;
21501;SDS011;27639;48.674;9.242;2023-02-28T00:15:17;5.85;;;2.63;;
21501;SDS011;27639;48.674;9.242;2023-02-28T00:17:43;5.38;;;3.05;;
21501;SDS011;27639;48.674;9.242;2023-02-28T00:20:11;6.72;;;2.90;;
21501;SDS011;27639;48.674;9.242;2023-02-28T00:22:38;5.53;;;2.90;;
21501;SDS011;27639;48.674;9.242;2023-02-28T00:25:06;5.32;;;2.72;;
21501;SDS011;27639;48.674;9.242;2023-02-28T00:27:32;6.32;;;3.10;;
21501;SDS011;27639;48.674;9.242;2023-02-28T00:29:59;4.68;;;2.33;;
21501;SDS011;27639;48.674;9.242;2023-02-28T00:32:25;4.50;;;2.70;;
21501;SDS011;27639;48.674;9.242;2023-02-28T00:34:51;5.72;;;2.67;;
21501;SDS011;27639;48.674;9.242;2023-02-28T00:37:17;4.97;;;2.95;;
21501;SDS011;27639;48.674;9.242;2023-02-28T00:39:42;7.15;;;2.75;;
21501;SDS011;27639;48.674;9.242;2023-02-28T00:42:08;7.88;;;2.85;;
21501;SDS011;27639;48.674;9.242;2023-02-28T00:44:34;5.05;;;3.17;;
21501;SDS011;27639;48.674;9.242;2023-02-28T00:46:59;4.40;;;2.90;;
21501;SDS011;27639;48.674;9.242;2023-02-28T00:49:26;4.20;;;2.72;;
21501;SDS011;27639;48.674;9.242;2023-02-28T00:51:52;5.15;;;3.00;;
21501;SDS011;27639;48.674;9.242;2023-02-28T00:54:19;4.85;;;2.88;;
21501;SDS011;27639;48.674;9.242;2023-02-28T00:56:44;5.72;;;3.15;;
21501;SDS011;27639;48.674;9.242;2023-02-28T00:59:11;5.82;;;2.80;;
21501;SDS011;27639;48.674;9.242;2023-02-28T01:01:37;5.63;;;3.13;;
21501;SDS011;27639;48.674;9.242;2023-02-28T01:04:03;7.40;;;3.35;;
21501;SDS011;27639;48.674;9.242;2023-02-28T01:06:29;4.85;;;2.95;;
21501;SDS011;27639;48.674;9.242;2023-02-28T01:08:55;5.75;;;3.20;;
21501;SDS011;27639;48.674;9.242;2023-02-28T01:11:21;5.63;;;2.67;;
21501;SDS011;27639;48.674;9.242;2023-02-28T01:13:46;4.75;;;3.00;;
21501;SDS011;27639;48.674;9.242;2023-02-28T01:16:13;4.72;;;2.45;;
21501;SDS011;27639;48.674;9.242;2023-02-28T01:18:39;5.25;;;2.78;;
21501;SDS011;27639;48.674;9.242;2023-02-28T01:21:05;4.80;;;2.95;;
21501;SDS011;27639;48.674;9.242;2023-02-28T01:23:32;5.70;;;2.90;;
21501;SDS011;27639;48.674;9.242;2023-02-28T01:26:03;5.68;;;3.17;;
21501;SDS011;27639;48.674;9.242;2023-02-28T01:30:58;5.55;;;2.95;;
21501;SDS011;27639;48.674;9.242;2023-02-28T01:33:24;5.07;;;2.88;;
21501;SDS011;27639;48.674;9.242;2023-02-28T01:35:56;5.05;;;2.83;;
21501;SDS011;27639;48.674;9.242;2023-02-28T01:38:23;5.68;;;2.95;;
21501;SDS011;27639;48.674;9.242;2023-02-28T01:40:49;5.68;;;3.10;;
21501;SDS011;27639;48.674;9.242;2023-02-28T01:43:28;6.93;;;3.38;;
21501;SDS011;27639;48.674;9.242;2023-02-28T01:45:56;6.22;;;3.30;;
21501;SDS011;27639;48.674;9.242;2023-02-28T01:48:25;5.50;;;3.10;;
21501;SDS011;27639;48.674;9.242;2023-02-28T01:50:55;5.32;;;3.13;;
21501;SDS011;27639;48.674;9.242;2023-02-28T01:53:26;4.88;;;2.80;;
21501;SDS011;27639;48.674;9.242;2023-02-28T01:55:57;4.88;;;3.08;;
21501;SDS011;27639;48.674;9.242;2023-02-28T01:58:23;5.30;;;3.08;;
21501;SDS011;27639;48.674;9.242;2023-02-28T02:00:48;4.43;;;3.05;;
21501;SDS011;27639;48.674;9.242;2023-02-28T02:03:15;5.30;;;3.22;;
21501;SDS011;27639;48.674;9.242;2023-02-28T02:05:46;5.65;;;3.35;;
21501;SDS011;27639;48.674;9.242;2023-02-28T02:08:13;6.30;;;3.88;;
21501;SDS011;27639;48.674;9.242;2023-02-28T02:10:44;4.78;;;3.40;;
21501;SDS011;27639;48.674;9.242;2023-02-28T02:15:49;7.00;;;3.28;;
21501;SDS011;27639;48.674;9.242;2023-02-28T02:18:26;5.65;;;3.30;;
21501;SDS011;27639;48.674;9.242;2023-02-28T02:24:52;6.78;;;3.45;;
21501;SDS011;27639;48.674;9.242;2023-02-28T02:41:04;5.75;;;3.35;;
21501;SDS011;27639;48.674;9.242;2023-02-28T02:43:51;7.55;;;3.92;;
21501;SDS011;27639;48.674;9.242;2023-02-28T02:46:23;4.70;;;3.33;;
21501;SDS011;27639;48.674;9.242;2023-02-28T02:48:54;5.13;;;3.60;;
21501;SDS011;27639;48.674;9.242;2023-02-28T02:51:23;6.30;;;3.47;;
21501;SDS011;27639;48.674;9.242;2023-02-28T02:54:11;5.35;;;3.53;;
21501;SDS011;27639;48.674;9.242;2023-02-28T02:56:42;5.63;;;3.60;;
21501;SDS011;27639;48.674;9.242;2023-02-28T02:59:12;6.15;;;3.40;;
21501;SDS011;27639;48.674;9.242;2023-02-28T03:01:40;6.07;;;3.78;;
21501;SDS011;27639;48.674;9.242;2023-02-28T03:04:11;5.07;;;3.85;;
21501;SDS011;27639;48.674;9.242;2023-02-28T03:06:40;7.32;;;4.07;;
21501;SDS011;27639;48.674;9.242;2023-02-28T03:09:08;8.63;;;3.90;;
21501;SDS011;27639;48.674;9.242;2023-02-28T03:11:34;5.97;;;4.15;;
21501;SDS011;27639;48.674;9.242;2023-02-28T03:24:43;6.45;;;3.78;;
21501;SDS011;27639;48.674;9.242;2023-02-28T03:27:17;6.28;;;4.05;;
21501;SDS011;27639;48.674;9.242;2023-02-28T03:30:02;7.68;;;3.97;;
21501;SDS011;27639;48.674;9.242;2023-02-28T03:35:12;6.10;;;3.72;;
21501;SDS011;27639;48.674;9.242;2023-02-28T03:37:46;6.57;;;3.80;;
21501;SDS011;27639;48.674;9.242;2023-02-28T03:40:17;7.50;;;4.05;;
21501;SDS011;27639;48.674;9.242;2023-02-28T03:42:54;5.65;;;3.95;;
21501;SDS011;27639;48.674;9.242;2023-02-28T03:45:25;6.85;;;3.85;;
21501;SDS011;27639;48.674;9.242;2023-02-28T03:48:02;5.50;;;3.90;;
21501;SDS011;27639;48.674;9.242;2023-02-28T03:50:54;6.32;;;3.88;;
21501;SDS011;27639;48.674;9.242;2023-02-28T03:53:27;7.15;;;4.00;;
21501;SDS011;27639;48.674;9.242;2023-02-28T03:55:59;5.95;;;3.78;;
21501;SDS011;27639;48.674;9.242;2023-02-28T04:04:00;6.47;;;4.25;;
21501;SDS011;27639;48.674;9.242;2023-02-28T04:06:25;6.80;;;4.10;;
21501;SDS011;27639;48.674;9.242;2023-02-28T04:08:52;6.22;;;3.97;;
21501;SDS011;27639;48.674;9.242;2023-02-28T04:11:20;7.40;;;4.50;;
21501;SDS011;27639;48.674;9.242;2023-02-28T04:13:59;6.00;;;4.00;;
21501;SDS011;27639;48.674;9.242;2023-02-28T04:16:25;5.43;;;4.03;;
21501;SDS011;27639;48.674;9.242;2023-02-28T04:18:51;7.55;;;4.47;;
21501;SDS011;27639;48.674;9.242;2023-02-28T04:21:17;5.80;;;3.97;;
21501;SDS011;27639;48.674;9.242;2023-02-28T04:23:45;6.25;;;4.30;;
21501;SDS011;27639;48.674;9.242;2023-02-28T04:26:11;6.88;;;4.57;;
21501;SDS011;27639;48.674;9.242;2023-02-28T04:28:37;7.22;;;4.60;;
21501;SDS011;27639;48.674;9.242;2023-02-28T04:31:04;6.15;;;4.20;;
21501;SDS011;27639;48.674;9.242;2023-02-28T04:33:30;6.88;;;4.20;;
21501;SDS011;27639;48.674;9.242;2023-02-28T04:36:07;5.88;;;4.55;;
21501;SDS011;27639;48.674;9.242;2023-02-28T04:38:34;6.57;;;4.43;;
21501;SDS011;27639;48.674;9.242;2023-02-28T04:41:01;6.90;;;4.55;;
21501;SDS011;27639;48.674;9.242;2023-02-28T04:43:27;8.10;;;4.60;;
21501;SDS011;27639;48.674;9.242;2023-02-28T04:45:55;7.13;;;4.97;;
21501;SDS011;27639;48.674;9.242;2023-02-28T04:48:24;6.88;;;4.38;;
21501;SDS011;27639;48.674;9.242;2023-02-28T04:50:52;6.40;;;4.40;;
21501;SDS011;27639;48.674;9.242;2023-02-28T04:53:18;7.22;;;4.55;;
21501;SDS011;27639;48.674;9.242;2023-02-28T04:55:44;6.65;;;4.70;;
21501;SDS011;27639;48.674;9.242;2023-02-28T04:58:09;7.55;;;4.95;;
21501;SDS011;27639;48.674;9.242;2023-02-28T05:00:35;7.18;;;4.57;;
21501;SDS011;27639;48.674;9.242;2023-02-28T05:03:01;7.75;;;4.97;;
21501;SDS011;27639;48.674;9.242;2023-02-28T05:05:27;7.82;;;4.82;;
21501;SDS011;27639;48.674;9.242;2023-02-28T05:07:52;8.13;;;5.05;;
21501;SDS011;27639;48.674;9.242;2023-02-28T05:10:20;7.82;;;4.90;;
21501;SDS011;27639;48.674;9.242;2023-02-28T05:12:46;8.70;;;4.72;;
21501;SDS011;27639;48.674;9.242;2023-02-28T05:15:13;6.70;;;4.80;;
21501;SDS011;27639;48.674;9.242;2023-02-28T05:17:39;8.43;;;4.88;;
21501;SDS011;27639;48.674;9.242;2023-02-28T05:20:05;7.32;;;5.20;;
21501;SDS011;27639;48.674;9.242;2023-02-28T05:22:33;7.13;;;5.57;;
21501;SDS011;27639;48.674;9.242;2023-02-28T05:24:59;6.28;;;4.72;;
21501;SDS011;27639;48.674;9.242;2023-02-28T05:27:24;7.53;;;4.75;;
21501;SDS011;27639;48.674;9.242;2023-02-28T05:29:50;8.35;;;5.00;;
21501;SDS011;27639;48.674;9.242;2023-02-28T05:32:15;7.25;;;5.13;;
21501;SDS011;27639;48.674;9.242;2023-02-28T05:34:41;8.65;;;5.38;;
21501;SDS011;27639;48.674;9.242;2023-02-28T05:37:10;9.40;;;4.85;;
21501;SDS011;27639;48.674;9.242;2023-02-28T05:39:37;7.63;;;4.85;;
21501;SDS011;27639;48.674;9.242;2023-02-28T05:42:03;8.15;;;5.30;;
21501;SDS011;27639;48.674;9.242;2023-02-28T05:44:29;7.28;;;5.18;;
21501;SDS011;27639;48.674;9.242;2023-02-28T05:46:55;8.32;;;5.05;;
21501;SDS011;27639;48.674;9.242;2023-02-28T05:49:20;7.35;;;5.05;;
21501;SDS011;27639;48.674;9.242;2023-02-28T05:51:46;9.25;;;5.53;;
21501;SDS011;27639;48.674;9.242;2023-02-28T05:54:12;7.22;;;5.10;;
21501;SDS011;27639;48.674;9.242;2023-02-28T05:56:38;6.97;;;5.32;;
21501;SDS011;27639;48.674;9.242;2023-02-28T05:59:05;8.10;;;5.40;;
21501;SDS011;27639;48.674;9.242;2023-02-28T06:01:38;7.93;;;5.20;;
21501;SDS011;27639;48.674;9.242;2023-02-28T06:04:07;8.52;;;5.25;;
21501;SDS011;27639;48.674;9.242;2023-02-28T06:06:34;7.97;;;5.68;;
21501;SDS011;27639;48.674;9.242;2023-02-28T06:09:02;8.90;;;5.57;;
21501;SDS011;27639;48.674;9.242;2023-02-28T06:11:29;8.65;;;5.63;;
21501;SDS011;27639;48.674;9.242;2023-02-28T06:13:55;9.70;;;5.90;;
21501;SDS011;27639;48.674;9.242;2023-02-28T06:16:22;8.90;;;6.07;;
21501;SDS011;27639;48.674;9.242;2023-02-28T06:18:48;9.85;;;6.30;;
21501;SDS011;27639;48.674;9.242;2023-02-28T06:21:14;9.13;;;5.78;;
21501;SDS011;27639;48.674;9.242;2023-02-28T06:23:39;8.40;;;5.82;;
21501;SDS011;27639;48.674;9.242;2023-02-28T06:26:05;9.13;;;5.82;;
21501;SDS011;27639;48.674;9.242;2023-02-28T06:28:30;9.35;;;5.55;;
21501;SDS011;27639;48.674;9.242;2023-02-28T06:30:56;8.10;;;6.13;;
21501;SDS011;27639;48.674;9.242;2023-02-28T06:33:22;9.60;;;5.95;;
21501;SDS011;27639;48.674;9.242;2023-02-28T06:35:50;9.32;;;5.97;;
21501;SDS011;27639;48.674;9.242;2023-02-28T06:38:17;9.90;;;6.57;;
21501;SDS011;27639;48.674;9.242;2023-02-28T06:40:43;10.40;;;6.40;;
21501;SDS011;27639;48.674;9.242;2023-02-28T06:43:09;9.27;;;6.45;;
21501;SDS011;27639;48.674;9.242;2023-02-28T06:45:40;10.40;;;6.80;;
21501;SDS011;27639;48.674;9.242;2023-02-28T06:48:07;11.13;;;6.55;;
21501;SDS011;27639;48.674;9.242;2023-02-28T06:50:33;11.13;;;6.35;;
21501;SDS011;27639;48.674;9.242;2023-02-28T06:52:59;10.98;;;6.22;;
21501;SDS011;27639;48.674;9.242;2023-02-28T06:55:24;10.35;;;6.43;;
21501;SDS011;27639;48.674;9.242;2023-02-28T06:57:50;9.10;;;6.20;;
21501;SDS011;27639;48.674;9.242;2023-02-28T07:00:15;9.73;;;6.72;;
21501;SDS011;27639;48.674;9.242;2023-02-28T07:02:41;10.43;;;6.32;;
21501;SDS011;27639;48.674;9.242;2023-02-28T07:05:07;10.32;;;5.97;;
21501;SDS011;27639;48.674;9.242;2023-02-28T07:07:33;8.82;;;6.45;;
21501;SDS011;27639;48.674;9.242;2023-02-28T07:10:00;9.73;;;6.53;;
21501;SDS011;27639;48.674;9.242;2023-02-28T07:12:26;10.98;;;6.75;;
21501;SDS011;27639;48.674;9.242;2023-02-28T07:14:52;8.70;;;6.65;;
21501;SDS011;27639;48.674;9.242;2023-02-28T07:17:17;12.40;;;6.60;;
21501;SDS011;27639;48.674;9.242;2023-02-28T07:19:43;11.45;;;7.15;;
21501;SDS011;27639;48.674;9.242;2023-02-28T07:22:08;11.07;;;6.82;;
21501;SDS011;27639;48.674;9.242;2023-02-28T07:24:34;8.80;;;6.53;;
21501;SDS011;27639;48.674;9.242;2023-02-28T07:26:59;11.82;;;6.95;;
21501;SDS011;27639;48.674;9.242;2023-02-28T07:29:26;9.27;;;6.70;;
21501;SDS011;27639;48.674;9.242;2023-02-28T07:31:52;10.80;;;7.32;;
21501;SDS011;27639;48.674;9.242;2023-02-28T07:34:18;11.43;;;6.53;;
21501;SDS011;27639;48.674;9.242;2023-02-28T07:36:44;11.65;;;7.25;;
21501;SDS011;27639;48.674;9.242;2023-02-28T07:39:10;11.13;;;6.65;;
21501;SDS011;27639;48.674;9.242;2023-02-28T07:41:35;10.93;;;7.22;;
21501;SDS011;27639;48.674;9.242;2023-02-28T07:44:08;11.00;;;7.25;;
21501;SDS011;27639;48.674;9.242;2023-02-28T07:46:36;10.55;;;6.80;;
21501;SDS011;27639;48.674;9.242;2023-02-28T07:49:02;11.45;;;7.38;;
21501;SDS011;27639;48.674;9.242;2023-02-28T07:51:30;8.88;;;6.45;;
21501;SDS011;27639;48.674;9.242;2023-02-28T07:53:56;11.70;;;7.10;;
21501;SDS011;27639;48.674;9.242;2023-02-28T07:56:22;9.68;;;7.15;;
21501;SDS011;27639;48.674;9.242;2023-02-28T07:58:48;12.68;;;8.02;;
21501;SDS011;27639;48.674;9.242;2023-02-28T08:01:13;10.82;;;7.45;;
21501;SDS011;27639;48.674;9.242;2023-02-28T08:03:39;11.57;;;8.35;;
21501;SDS011;27639;48.674;9.242;2023-02-28T08:06:05;10.32;;;6.93;;
21501;SDS011;27639;48.674;9.242;2023-02-28T08:08:32;10.40;;;7.40;;
21501;SDS011;27639;48.674;9.242;2023-02-28T08:10:59;10.98;;;7.65;;
21501;SDS011;27639;48.674;9.242;2023-02-28T08:13:28;10.38;;;7.13;;
21501;SDS011;27639;48.674;9.242;2023-02-28T08:15:55;10.55;;;7.28;;
21501;SDS011;27639;48.674;9.242;2023-02-28T08:18:21;11.70;;;8.13;;
21501;SDS011;27639;48.674;9.242;2023-02-28T08:20:47;10.50;;;7.28;;
21501;SDS011;27639;48.674;9.242;2023-02-28T08:23:13;11.57;;;8.15;;
21501;SDS011;27639;48.674;9.242;2023-02-28T08:25:39;11.38;;;7.57;;
21501;SDS011;27639;48.674;9.242;2023-02-28T08:28:04;10.25;;;7.55;;
21501;SDS011;27639;48.674;9.242;2023-02-28T08:30:30;12.55;;;7.97;;
21501;SDS011;27639;48.674;9.242;2023-02-28T08:32:56;10.55;;;7.55;;
21501;SDS011;27639;48.674;9.242;2023-02-28T08:35:21;10.20;;;7.15;;
21501;SDS011;27639;48.674;9.242;2023-02-28T08:37:48;9.95;;;6.60;;
21501;SDS011;27639;48.674;9.242;2023-02-28T08:40:14;11.75;;;7.95;;
21501;SDS011;27639;48.674;9.242;2023-02-28T08:42:49;13.00;;;8.13;;
21501;SDS011;27639;48.674;9.242;2023-02-28T08:45:15;10.05;;;7.43;;
21501;SDS011;27639;48.674;9.242;2023-02-28T08:47:41;11.00;;;7.63;;
21501;SDS011;27639;48.674;9.242;2023-02-28T08:50:07;12.57;;;8.50;;
21501;SDS011;27639;48.674;9.242;2023-02-28T08:52:33;11.40;;;7.93;;
21501;SDS011;27639;48.674;9.242;2023-02-28T08:54:58;14.95;;;9.10;;
21501;SDS011;27639;48.674;9.242;2023-02-28T08:57:24;14.07;;;8.60;;
21501;SDS011;27639;48.674;9.242;2023-02-28T08:59:51;10.80;;;7.60;;
21501;SDS011;27639;48.674;9.242;2023-02-28T09:02:17;11.07;;;8.00;;
21501;SDS011;27639;48.674;9.242;2023-02-28T09:04:43;10.98;;;7.82;;
21501;SDS011;27639;48.674;9.242;2023-02-28T09:07:10;11.60;;;8.32;;
21501;SDS011;27639;48.674;9.242;2023-02-28T09:09:37;11.35;;;7.10;;
21501;SDS011;27639;48.674;9.242;2023-02-28T09:12:02;10.07;;;7.53;;
21501;SDS011;27639;48.674;9.242;2023-02-28T09:14:28;10.85;;;7.78;;
21501;SDS011;27639;48.674;9.242;2023-02-28T09:16:54;9.93;;;7.75;;
21501;SDS011;27639;48.674;9.242;2023-02-28T09:19:20;10.45;;;7.65;;
21501;SDS011;27639;48.674;9.242;2023-02-28T09:21:45;11.07;;;7.95;;
21501;SDS011;27639;48.674;9.242;2023-02-28T09:24:11;10.23;;;7.57;;
21501;SDS011;27639;48.674;9.242;2023-02-28T09:26:39;11.95;;;7.93;;
21501;SDS011;27639;48.674;9.242;2023-02-28T09:29:05;11.68;;;7.78;;
21501;SDS011;27639;48.674;9.242;2023-02-28T09:31:31;9.32;;;6.93;;
21501;SDS011;27639;48.674;9.242;2023-02-28T09:33:57;12.25;;;8.40;;
21501;SDS011;27639;48.674;9.242;2023-02-28T09:36:24;9.02;;;5.90;;
21501;SDS011;27639;48.674;9.242;2023-02-28T09:38:51;11.20;;;7.90;;
21501;SDS011;27639;48.674;9.242;2023-02-28T09:41:37;10.75;;;7.97;;
21501;SDS011;27639;48.674;9.242;2023-02-28T09:44:12;10.43;;;7.90;;
21501;SDS011;27639;48.674;9.242;2023-02-28T09:46:44;12.77;;;8.15;;
21501;SDS011;27639;48.674;9.242;2023-02-28T09:49:16;10.30;;;7.65;;
21501;SDS011;27639;48.674;9.242;2023-02-28T09:54:28;12.05;;;8.05;;
21501;SDS011;27639;48.674;9.242;2023-02-28T09:56:58;11.93;;;8.60;;
21501;SDS011;27639;48.674;9.242;2023-02-28T10:02:08;11.60;;;7.70;;
21501;SDS011;27639;48.674;9.242;2023-02-28T10:04:41;13.63;;;8.05;;
21501;SDS011;27639;48.674;9.242;2023-02-28T10:07:22;11.20;;;7.68;;
21501;SDS011;27639;48.674;9.242;2023-02-28T10:10:18;12.00;;;7.60;;
21501;SDS011;27639;48.674;9.242;2023-02-28T10:12:52;12.40;;;7.43;;
21501;SDS011;27639;48.674;9.242;2023-02-28T10:15:21;10.98;;;7.22;;
21501;SDS011;27639;48.674;9.242;2023-02-28T10:17:51;10.88;;;7.70;;
21501;SDS011;27639;48.674;9.242;2023-02-28T10:20:22;12.35;;;9.00;;
21501;SDS011;27639;48.674;9.242;2023-02-28T10:23:01;11.80;;;9.07;;
21501;SDS011;27639;48.674;9.242;2023-02-28T10:25:34;10.98;;;7.93;;
21501;SDS011;27639;48.674;9.242;2023-02-28T10:28:07;11.52;;;7.97;;
21501;SDS011;27639;48.674;9.242;2023-02-28T10:30:40;10.75;;;7.80;;
21501;SDS011;27639;48.674;9.242;2023-02-28T10:33:18;10.60;;;6.78;;
21501;SDS011;27639;48.674;9.242;2023-02-28T10:35:51;10.95;;;8.20;;
21501;SDS011;27639;48.674;9.242;2023-02-28T10:38:19;11.48;;;8.38;;
21501;SDS011;27639;48.674;9.242;2023-02-28T10:40:50;10.93;;;7.85;;
21501;SDS011;27639;48.674;9.242;2023-02-28T10:45:52;13.00;;;8.32;;
21501;SDS011;27639;48.674;9.242;2023-02-28T10:50:50;11.20;;;7.97;;
21501;SDS011;27639;48.674;9.242;2023-02-28T10:53:24;12.60;;;7.90;;
21501;SDS011;27639;48.674;9.242;2023-02-28T10:56:04;10.52;;;7.85;;
21501;SDS011;27639;48.674;9.242;2023-02-28T11:04:16;11.38;;;8.05;;
21501;SDS011;27639;48.674;9.242;2023-02-28T11:06:59;11.00;;;7.40;;
21501;SDS011;27639;48.674;9.242;2023-02-28T11:09:49;11.75;;;8.88;;
21501;SDS011;27639;48.674;9.242;2023-02-28T11:15:00;10.57;;;8.13;;
21501;SDS011;27639;48.674;9.242;2023-02-28T11:17:30;11.43;;;8.85;;
21501;SDS011;27639;48.674;9.242;2023-02-28T11:19:58;12.90;;;8.48;;
21501;SDS011;27639;48.674;9.242;2023-02-28T11:22:29;11.38;;;8.80;;
21501;SDS011;27639;48.674;9.242;2023-02-28T11:25:02;11.95;;;8.40;;
21501;SDS011;27639;48.674;9.242;2023-02-28T11:27:48;15.18;;;8.25;;
21501;SDS011;27639;48.674;9.242;2023-02-28T11:30:23;10.57;;;8.40;;
21501;SDS011;27639;48.674;9.242;2023-02-28T11:32:53;11.60;;;8.10;;
21501;SDS011;27639;48.674;9.242;2023-02-28T11:35:35;10.93;;;7.75;;
21501;SDS011;27639;48.674;9.242;2023-02-28T11:38:04;11.30;;;8.52;;
21501;SDS011;27639;48.674;9.242;2023-02-28T11:46:05;18.73;;;12.40;;
21501;SDS011;27639;48.674;9.242;2023-02-28T11:48:33;14.38;;;10.55;;
21501;SDS011;27639;48.674;9.242;2023-02-28T11:51:24;12.73;;;8.98;;
21501;SDS011;27639;48.674;9.242;2023-02-28T11:56:59;11.90;;;8.70;;
21501;SDS011;27639;48.674;9.242;2023-02-28T12:02:50;10.63;;;7.95;;
21501;SDS011;27639;48.674;9.242;2023-02-28T12:27:09;10.95;;;8.13;;
21501;SDS011;27639;48.674;9.242;2023-02-28T12:29:42;13.60;;;7.30;;
21501;SDS011;27639;48.674;9.242;2023-02-28T12:32:22;11.77;;;8.65;;
21501;SDS011;27639;48.674;9.242;2023-02-28T12:34:57;11.82;;;7.93;;
21501;SDS011;27639;48.674;9.242;2023-02-28T12:40:06;11.75;;;8.18;;
21501;SDS011;27639;48.674;9.242;2023-02-28T12:42:38;12.13;;;7.95;;
21501;SDS011;27639;48.674;9.242;2023-02-28T12:48:04;11.25;;;8.15;;
21501;SDS011;27639;48.674;9.242;2023-02-28T12:50:33;12.27;;;8.20;;
21501;SDS011;27639;48.674;9.242;2023-02-28T12:53:09;12.90;;;8.55;;
21501;SDS011;27639;48.674;9.242;2023-02-28T13:01:13;12.13;;;8.50;;
21501;SDS011;27639;48.674;9.242;2023-02-28T13:09:28;11.15;;;8.27;;
21501;SDS011;27639;48.674;9.242;2023-02-28T13:11:54;10.93;;;8.55;;
21501;SDS011;27639;48.674;9.242;2023-02-28T13:19:43;13.25;;;9.18;;
21501;SDS011;27639;48.674;9.242;2023-02-28T13:24:55;11.10;;;8.57;;
21501;SDS011;27639;48.674;9.242;2023-02-28T13:35:45;10.40;;;8.27;;
21501;SDS011;27639;48.674;9.242;2023-02-28T13:38:13;11.43;;;8.75;;
21501;SDS011;27639;48.674;9.242;2023-02-28T13:40:46;11.63;;;9.05;;
21501;SDS011;27639;48.674;9.242;2023-02-28T13:43:12;13.50;;;8.38;;
21501;SDS011;27639;48.674;9.242;2023-02-28T13:45:55;10.25;;;8.32;;
21501;SDS011;27639;48.674;9.242;2023-02-28T13:48:33;12.23;;;8.65;;
21501;SDS011;27639;48.674;9.242;2023-02-28T13:50:58;11.85;;;8.43;;
21501;SDS011;27639;48.674;9.242;2023-02-28T13:53:28;12.07;;;8.68;;
21501;SDS011;27639;48.674;9.242;2023-02-28T13:56:07;10.27;;;7.95;;
21501;SDS011;27639;48.674;9.242;2023-02-28T14:06:30;12.02;;;8.25;;
21501;SDS011;27639;48.674;9.242;2023-02-28T14:11:44;11.10;;;8.63;;
21501;SDS011;27639;48.674;9.242;2023-02-28T14:17:15;11.43;;;8.27;;
21501;SDS011;27639;48.674;9.242;2023-02-28T14:19:45;10.88;;;7.88;;
21501;SDS011;27639;48.674;9.242;2023-02-28T14:28:12;13.35;;;7.95;;
21501;SDS011;27639;48.674;9.242;2023-02-28T14:31:01;10.38;;;8.32;;
21501;SDS011;27639;48.674;9.242;2023-02-28T14:36:10;12.10;;;9.00;;
21501;SDS011;27639;48.674;9.242;2023-02-28T14:38:37;12.65;;;7.93;;
21501;SDS011;27639;48.674;9.242;2023-02-28T14:41:37;10.30;;;8.07;;
21501;SDS011;27639;48.674;9.242;2023-02-28T14:46:50;12.57;;;8.75;;
21501;SDS011;27639;48.674;9.242;2023-02-28T14:52:02;9.18;;;7.60;;
21501;SDS011;27639;48.674;9.242;2023-02-28T14:54:35;10.70;;;8.02;;
21501;SDS011;27639;48.674;9.242;2023-02-28T14:57:02;11.65;;;7.65;;
21501;SDS011;27639;48.674;9.242;2023-02-28T14:59:32;11.63;;;8.00;;
21501;SDS011;27639;48.674;9.242;2023-02-28T15:02:20;10.52;;;7.82;;
21501;SDS011;27639;48.674;9.242;2023-02-28T15:04:55;10.05;;;7.65;;
21501;SDS011;27639;48.674;9.242;2023-02-28T15:07:22;12.82;;;9.45;;
21501;SDS011;27639;48.674;9.242;2023-02-28T15:12:57;10.50;;;8.13;;
21501;SDS011;27639;48.674;9.242;2023-02-28T15:15:45;10.45;;;7.88;;
21501;SDS011;27639;48.674;9.242;2023-02-28T15:18:21;10.60;;;7.95;;
21501;SDS011;27639;48.674;9.242;2023-02-28T15:20:55;10.98;;;8.18;;
21501;SDS011;27639;48.674;9.242;2023-02-28T15:23:23;10.38;;;7.88;;
21501;SDS011;27639;48.674;9.242;2023-02-28T15:25:49;11.48;;;8.55;;
21501;SDS011;27639;48.674;9.242;2023-02-28T15:28:18;11.85;;;8.57;;
21501;SDS011;27639;48.674;9.242;2023-02-28T15:30:56;11.32;;;8.48;;
21501;SDS011;27639;48.674;9.242;2023-02-28T15:33:28;11.40;;;8.75;;
21501;SDS011;27639;48.674;9.242;2023-02-28T15:36:14;12.20;;;8.05;;
21501;SDS011;27639;48.674;9.242;2023-02-28T15:38:44;13.00;;;8.55;;
21501;SDS011;27639;48.674;9.242;2023-02-28T15:41:28;11.48;;;7.72;;
21501;SDS011;27639;48.674;9.242;2023-02-28T15:46:43;11.85;;;7.72;;
21501;SDS011;27639;48.674;9.242;2023-02-28T15:49:21;9.90;;;7.38;;
21501;SDS011;27639;48.674;9.242;2023-02-28T15:51:48;10.75;;;7.60;;
21501;SDS011;27639;48.674;9.242;2023-02-28T15:54:27;13.40;;;8.75;;
21501;SDS011;27639;48.674;9.242;2023-02-28T15:56:56;11.65;;;8.73;;
21501;SDS011;27639;48.674;9.242;2023-02-28T15:59:24;11.43;;;7.82;;
21501;SDS011;27639;48.674;9.242;2023-02-28T16:04:34;13.82;;;8.18;;
21501;SDS011;27639;48.674;9.242;2023-02-28T16:07:01;10.73;;;8.32;;
21501;SDS011;27639;48.674;9.242;2023-02-28T16:09:29;10.88;;;7.93;;
21501;SDS011;27639;48.674;9.242;2023-02-28T16:11:56;10.80;;;8.13;;
21501;SDS011;27639;48.674;9.242;2023-02-28T16:14:26;10.68;;;8.02;;
21501;SDS011;27639;48.674;9.242;2023-02-28T16:16:56;10.63;;;7.90;;
21501;SDS011;27639;48.674;9.242;2023-02-28T16:19:28;10.77;;;8.25;;
21501;SDS011;27639;48.674;9.242;2023-02-28T16:21:54;10.82;;;7.93;;
21501;SDS011;27639;48.674;9.242;2023-02-28T16:24:19;10.52;;;7.55;;
21501;SDS011;27639;48.674;9.242;2023-02-28T16:26:46;9.57;;;7.35;;
21501;SDS011;27639;48.674;9.242;2023-02-28T16:29:14;11.52;;;7.90;;
21501;SDS011;27639;48.674;9.242;2023-02-28T16:31:49;11.07;;;8.23;;
21501;SDS011;27639;48.674;9.242;2023-02-28T16:34:15;11.55;;;8.93;;
21501;SDS011;27639;48.674;9.242;2023-02-28T16:36:40;12.25;;;8.57;;
21501;SDS011;27639;48.674;9.242;2023-02-28T16:39:06;12.90;;;9.13;;
21501;SDS011;27639;48.674;9.242;2023-02-28T16:41:31;10.98;;;8.25;;
21501;SDS011;27639;48.674;9.242;2023-02-28T16:43:59;12.88;;;8.48;;
21501;SDS011;27639;48.674;9.242;2023-02-28T16:46:30;12.68;;;8.95;;
21501;SDS011;27639;48.674;9.242;2023-02-28T16:48:58;11.57;;;8.25;;
21501;SDS011;27639;48.674;9.242;2023-02-28T16:51:23;12.35;;;8.38;;
21501;SDS011;27639;48.674;9.242;2023-02-28T16:53:49;10.85;;;8.43;;
21501;SDS011;27639;48.674;9.242;2023-02-28T16:56:24;12.52;;;8.65;;
21501;SDS011;27639;48.674;9.242;2023-02-28T16:58:50;11.77;;;7.85;;
21501;SDS011;27639;48.674;9.242;2023-02-28T17:01:17;12.57;;;8.88;;
21501;SDS011;27639;48.674;9.242;2023-02-28T17:03:47;12.20;;;8.20;;
21501;SDS011;27639;48.674;9.242;2023-02-28T17:06:23;12.43;;;8.68;;
21501;SDS011;27639;48.674;9.242;2023-02-28T17:08:52;12.73;;;8.50;;
21501;SDS011;27639;48.674;9.242;2023-02-28T17:11:18;13.63;;;8.75;;
21501;SDS011;27639;48.674;9.242;2023-02-28T17:13:44;13.23;;;8.73;;
21501;SDS011;27639;48.674;9.242;2023-02-28T17:18:56;12.38;;;8.90;;
21501;SDS011;27639;48.674;9.242;2023-02-28T17:21:27;11.18;;;8.18;;
21501;SDS011;27639;48.674;9.242;2023-02-28T17:23:54;14.35;;;9.02;;
21501;SDS011;27639;48.674;9.242;2023-02-28T17:26:20;13.05;;;8.15;;
21501;SDS011;27639;48.674;9.242;2023-02-28T17:28:49;14.02;;;8.90;;
21501;SDS011;27639;48.674;9.242;2023-02-28T17:31:15;11.88;;;9.00;;
21501;SDS011;27639;48.674;9.242;2023-02-28T17:33:41;14.05;;;9.23;;
21501;SDS011;27639;48.674;9.242;2023-02-28T17:36:13;13.18;;;9.48;;
21501;SDS011;27639;48.674;9.242;2023-02-28T17:38:39;13.35;;;9.65;;